sensor_id;sensor_type;location;lat;lon;timestamp;P1;durP1;ratioP1;P2;durP2;ratioP2
38399;SDS011;24180;42.676;23.320;2023-04-08T00:02:18;25.77;;;19.97;;
38399;SDS011;24180;42.676;23.320;2023-04-08T00:04:44;24.27;;;19.17;;
38399;SDS011;24180;42.676;23.320;2023-04-08T00:07:09;24.73;;;20.17;;
38399;SDS011;24180;42.676;23.320;2023-04-08T00:09:35;25.77;;;20.27;;
38399;SDS011;24180;42.676;23.320;2023-04-08T00:12:00;29.07;;;20.97;;
38399;SDS011;24180;42.676;23.320;2023-04-08T00:14:26;24.27;;;21.10;;
38399;SDS011;24180;42.676;23.320;2023-04-08T00:16:51;25.80;;;19.50;;
38399;SDS011;24180;42.676;23.320;2023-04-08T00:19:16;31.00;;;20.53;;
38399;SDS011;24180;42.676;23.320;2023-04-08T00:21:42;27.13;;;19.97;;
38399;SDS011;24180;42.676;23.320;2023-04-08T00:24:07;24.83;;;19.50;;
38399;SDS011;24180;42.676;23.320;2023-04-08T00:26:33;26.40;;;19.67;;
38399;SDS011;24180;42.676;23.320;2023-04-08T00:28:58;25.57;;;19.87;;
38399;SDS011;24180;42.676;23.320;2023-04-08T00:31:24;25.53;;;19.80;;
38399;SDS011;24180;42.676;23.320;2023-04-08T00:33:50;21.77;;;19.33;;
38399;SDS011;24180;42.676;23.320;2023-04-08T00:36:15;27.20;;;20.13;;
38399;SDS011;24180;42.676;23.320;2023-04-08T00:38:41;23.43;;;19.37;;
38399;SDS011;24180;42.676;23.320;2023-04-08T00:41:07;24.97;;;19.83;;
38399;SDS011;24180;42.676;23.320;2023-04-08T00:43:32;28.20;;;19.93;;
38399;SDS011;24180;42.676;23.320;2023-04-08T00:45:57;24.80;;;19.90;;
38399;SDS011;24180;42.676;23.320;2023-04-08T00:48:23;23.60;;;19.50;;
38399;SDS011;24180;42.676;23.320;2023-04-08T00:50:49;26.23;;;20.37;;
38399;SDS011;24180;42.676;23.320;2023-04-08T00:53:16;26.17;;;21.60;;
38399;SDS011;24180;42.676;23.320;2023-04-08T00:55:43;26.30;;;20.27;;
38399;SDS011;24180;42.676;23.320;2023-04-08T00:58:08;26.80;;;20.27;;
38399;SDS011;24180;42.676;23.320;2023-04-08T01:00:34;24.27;;;20.57;;
38399;SDS011;24180;42.676;23.320;2023-04-08T01:03:24;23.90;;;20.40;;
38399;SDS011;24180;42.676;23.320;2023-04-08T01:06:12;25.30;;;20.63;;
38399;SDS011;24180;42.676;23.320;2023-04-08T01:08:45;28.83;;;22.17;;
38399;SDS011;24180;42.676;23.320;2023-04-08T01:11:13;35.10;;;22.87;;
38399;SDS011;24180;42.676;23.320;2023-04-08T01:13:39;29.37;;;22.33;;
38399;SDS011;24180;42.676;23.320;2023-04-08T01:16:12;26.30;;;21.93;;
38399;SDS011;24180;42.676;23.320;2023-04-08T01:18:40;29.60;;;21.87;;
38399;SDS011;24180;42.676;23.320;2023-04-08T01:21:09;28.13;;;21.87;;
38399;SDS011;24180;42.676;23.320;2023-04-08T01:23:53;24.77;;;19.17;;
38399;SDS011;24180;42.676;23.320;2023-04-08T01:26:26;21.90;;;18.07;;
38399;SDS011;24180;42.676;23.320;2023-04-08T01:28:55;20.53;;;16.27;;
38399;SDS011;24180;42.676;23.320;2023-04-08T01:31:23;20.87;;;16.60;;
38399;SDS011;24180;42.676;23.320;2023-04-08T01:33:50;18.63;;;15.70;;
38399;SDS011;24180;42.676;23.320;2023-04-08T01:36:16;19.27;;;14.97;;
38399;SDS011;24180;42.676;23.320;2023-04-08T01:38:45;16.33;;;14.60;;
38399;SDS011;24180;42.676;23.320;2023-04-08T01:41:13;20.30;;;15.53;;
38399;SDS011;24180;42.676;23.320;2023-04-08T01:43:41;19.80;;;15.77;;
38399;SDS011;24180;42.676;23.320;2023-04-08T01:46:07;19.37;;;16.20;;
38399;SDS011;24180;42.676;23.320;2023-04-08T01:48:35;20.40;;;16.17;;
38399;SDS011;24180;42.676;23.320;2023-04-08T01:51:03;17.23;;;15.17;;
38399;SDS011;24180;42.676;23.320;2023-04-08T01:53:30;18.70;;;15.43;;
38399;SDS011;24180;42.676;23.320;2023-04-08T01:55:57;18.33;;;14.87;;
38399;SDS011;24180;42.676;23.320;2023-04-08T01:58:27;20.63;;;15.37;;
38399;SDS011;24180;42.676;23.320;2023-04-08T02:01:00;18.13;;;15.07;;
38399;SDS011;24180;42.676;23.320;2023-04-08T02:03:26;18.33;;;15.07;;
38399;SDS011;24180;42.676;23.320;2023-04-08T02:05:54;17.83;;;14.80;;
38399;SDS011;24180;42.676;23.320;2023-04-08T02:08:20;19.10;;;14.90;;
38399;SDS011;24180;42.676;23.320;2023-04-08T02:10:45;20.40;;;16.20;;
38399;SDS011;24180;42.676;23.320;2023-04-08T02:13:11;16.57;;;14.57;;
38399;SDS011;24180;42.676;23.320;2023-04-08T02:15:37;16.10;;;14.30;;
38399;SDS011;24180;42.676;23.320;2023-04-08T02:18:08;20.27;;;15.27;;
38399;SDS011;24180;42.676;23.320;2023-04-08T02:20:37;19.97;;;16.53;;
38399;SDS011;24180;42.676;23.320;2023-04-08T02:23:15;18.60;;;15.50;;
38399;SDS011;24180;42.676;23.320;2023-04-08T02:25:44;18.40;;;15.27;;
38399;SDS011;24180;42.676;23.320;2023-04-08T02:28:11;18.60;;;15.37;;
38399;SDS011;24180;42.676;23.320;2023-04-08T02:30:42;18.83;;;15.70;;
38399;SDS011;24180;42.676;23.320;2023-04-08T02:33:13;19.30;;;15.87;;
38399;SDS011;24180;42.676;23.320;2023-04-08T02:35:39;18.80;;;15.60;;
38399;SDS011;24180;42.676;23.320;2023-04-08T02:38:05;19.03;;;15.93;;
38399;SDS011;24180;42.676;23.320;2023-04-08T02:40:31;18.13;;;16.20;;
38399;SDS011;24180;42.676;23.320;2023-04-08T02:42:58;18.77;;;15.97;;
38399;SDS011;24180;42.676;23.320;2023-04-08T02:45:28;18.47;;;16.43;;
38399;SDS011;24180;42.676;23.320;2023-04-08T02:47:55;21.43;;;17.70;;
38399;SDS011;24180;42.676;23.320;2023-04-08T02:50:21;24.37;;;18.30;;
38399;SDS011;24180;42.676;23.320;2023-04-08T02:52:46;26.10;;;19.63;;
38399;SDS011;24180;42.676;23.320;2023-04-08T02:55:12;27.33;;;20.73;;
38399;SDS011;24180;42.676;23.320;2023-04-08T02:57:38;29.80;;;20.53;;
38399;SDS011;24180;42.676;23.320;2023-04-08T03:00:05;23.67;;;20.03;;
38399;SDS011;24180;42.676;23.320;2023-04-08T03:02:31;24.63;;;20.53;;
38399;SDS011;24180;42.676;23.320;2023-04-08T03:04:57;23.67;;;20.13;;
38399;SDS011;24180;42.676;23.320;2023-04-08T03:07:22;25.07;;;20.77;;
38399;SDS011;24180;42.676;23.320;2023-04-08T03:09:48;25.33;;;20.27;;
38399;SDS011;24180;42.676;23.320;2023-04-08T03:12:13;27.33;;;20.80;;
38399;SDS011;24180;42.676;23.320;2023-04-08T03:14:38;27.30;;;20.93;;
38399;SDS011;24180;42.676;23.320;2023-04-08T03:17:04;27.33;;;20.43;;
38399;SDS011;24180;42.676;23.320;2023-04-08T03:19:29;31.10;;;21.60;;
38399;SDS011;24180;42.676;23.320;2023-04-08T03:21:55;28.00;;;21.20;;
38399;SDS011;24180;42.676;23.320;2023-04-08T03:24:20;30.50;;;21.77;;
38399;SDS011;24180;42.676;23.320;2023-04-08T03:26:46;28.27;;;21.43;;
38399;SDS011;24180;42.676;23.320;2023-04-08T03:29:11;29.40;;;22.87;;
38399;SDS011;24180;42.676;23.320;2023-04-08T03:31:36;35.83;;;23.17;;
38399;SDS011;24180;42.676;23.320;2023-04-08T03:34:02;28.57;;;22.60;;
38399;SDS011;24180;42.676;23.320;2023-04-08T03:36:27;30.40;;;21.97;;
38399;SDS011;24180;42.676;23.320;2023-04-08T03:38:53;27.07;;;20.30;;
38399;SDS011;24180;42.676;23.320;2023-04-08T03:41:18;26.50;;;20.00;;
38399;SDS011;24180;42.676;23.320;2023-04-08T03:43:45;26.23;;;20.77;;
38399;SDS011;24180;42.676;23.320;2023-04-08T03:46:10;29.90;;;21.67;;
38399;SDS011;24180;42.676;23.320;2023-04-08T03:48:36;29.30;;;21.87;;
38399;SDS011;24180;42.676;23.320;2023-04-08T03:51:01;25.57;;;20.30;;
38399;SDS011;24180;42.676;23.320;2023-04-08T03:53:26;28.63;;;21.80;;
38399;SDS011;24180;42.676;23.320;2023-04-08T03:55:53;28.63;;;21.23;;
38399;SDS011;24180;42.676;23.320;2023-04-08T03:58:20;27.00;;;20.27;;
38399;SDS011;24180;42.676;23.320;2023-04-08T04:00:46;26.00;;;20.13;;
38399;SDS011;24180;42.676;23.320;2023-04-08T04:03:11;32.60;;;20.80;;
38399;SDS011;24180;42.676;23.320;2023-04-08T04:05:37;27.43;;;20.43;;
38399;SDS011;24180;42.676;23.320;2023-04-08T04:08:03;26.27;;;19.90;;
38399;SDS011;24180;42.676;23.320;2023-04-08T04:10:29;22.53;;;19.50;;
38399;SDS011;24180;42.676;23.320;2023-04-08T04:12:55;29.13;;;21.03;;
38399;SDS011;24180;42.676;23.320;2023-04-08T04:15:20;25.47;;;20.50;;
38399;SDS011;24180;42.676;23.320;2023-04-08T04:17:49;27.77;;;21.03;;
38399;SDS011;24180;42.676;23.320;2023-04-08T04:20:15;26.70;;;20.50;;
38399;SDS011;24180;42.676;23.320;2023-04-08T04:22:40;27.10;;;21.27;;
38399;SDS011;24180;42.676;23.320;2023-04-08T04:25:06;30.57;;;21.27;;
38399;SDS011;24180;42.676;23.320;2023-04-08T04:27:32;23.97;;;20.10;;
38399;SDS011;24180;42.676;23.320;2023-04-08T04:29:59;25.40;;;20.30;;
38399;SDS011;24180;42.676;23.320;2023-04-08T04:32:25;26.57;;;21.07;;
38399;SDS011;24180;42.676;23.320;2023-04-08T04:34:50;28.87;;;21.80;;
38399;SDS011;24180;42.676;23.320;2023-04-08T04:37:16;26.07;;;20.30;;
38399;SDS011;24180;42.676;23.320;2023-04-08T04:39:42;24.30;;;20.57;;
38399;SDS011;24180;42.676;23.320;2023-04-08T04:42:08;26.90;;;20.07;;
38399;SDS011;24180;42.676;23.320;2023-04-08T04:44:33;26.83;;;19.70;;
38399;SDS011;24180;42.676;23.320;2023-04-08T04:46:58;24.43;;;19.77;;
38399;SDS011;24180;42.676;23.320;2023-04-08T04:49:24;25.23;;;19.83;;
38399;SDS011;24180;42.676;23.320;2023-04-08T04:51:49;23.53;;;20.10;;
38399;SDS011;24180;42.676;23.320;2023-04-08T04:54:15;31.13;;;20.47;;
38399;SDS011;24180;42.676;23.320;2023-04-08T04:56:41;30.43;;;21.97;;
38399;SDS011;24180;42.676;23.320;2023-04-08T04:59:06;29.87;;;20.47;;
38399;SDS011;24180;42.676;23.320;2023-04-08T05:01:32;27.90;;;20.60;;
38399;SDS011;24180;42.676;23.320;2023-04-08T05:03:58;26.70;;;19.53;;
38399;SDS011;24180;42.676;23.320;2023-04-08T05:06:24;26.03;;;20.60;;
38399;SDS011;24180;42.676;23.320;2023-04-08T05:08:50;26.40;;;19.67;;
38399;SDS011;24180;42.676;23.320;2023-04-08T05:11:15;26.63;;;20.80;;
38399;SDS011;24180;42.676;23.320;2023-04-08T05:13:42;26.77;;;19.70;;
38399;SDS011;24180;42.676;23.320;2023-04-08T05:16:08;25.87;;;19.93;;
38399;SDS011;24180;42.676;23.320;2023-04-08T05:18:34;28.53;;;20.50;;
38399;SDS011;24180;42.676;23.320;2023-04-08T05:21:00;30.57;;;20.40;;
38399;SDS011;24180;42.676;23.320;2023-04-08T05:23:26;29.47;;;19.63;;
38399;SDS011;24180;42.676;23.320;2023-04-08T05:25:51;24.03;;;19.20;;
38399;SDS011;24180;42.676;23.320;2023-04-08T05:28:35;24.20;;;19.17;;
38399;SDS011;24180;42.676;23.320;2023-04-08T05:31:01;23.60;;;18.23;;
38399;SDS011;24180;42.676;23.320;2023-04-08T05:33:26;23.33;;;19.13;;
38399;SDS011;24180;42.676;23.320;2023-04-08T05:35:52;24.10;;;18.90;;
38399;SDS011;24180;42.676;23.320;2023-04-08T05:38:17;24.30;;;18.93;;
38399;SDS011;24180;42.676;23.320;2023-04-08T05:40:43;23.93;;;19.37;;
38399;SDS011;24180;42.676;23.320;2023-04-08T05:43:08;21.73;;;19.40;;
38399;SDS011;24180;42.676;23.320;2023-04-08T05:45:33;21.40;;;18.13;;
38399;SDS011;24180;42.676;23.320;2023-04-08T05:47:59;23.43;;;19.00;;
38399;SDS011;24180;42.676;23.320;2023-04-08T05:50:25;22.10;;;17.93;;
38399;SDS011;24180;42.676;23.320;2023-04-08T05:52:50;23.97;;;18.20;;
38399;SDS011;24180;42.676;23.320;2023-04-08T05:55:15;21.13;;;17.80;;
38399;SDS011;24180;42.676;23.320;2023-04-08T05:57:41;23.37;;;17.37;;
38399;SDS011;24180;42.676;23.320;2023-04-08T06:00:07;19.03;;;17.03;;
38399;SDS011;24180;42.676;23.320;2023-04-08T06:02:34;23.00;;;18.37;;
38399;SDS011;24180;42.676;23.320;2023-04-08T06:05:01;22.10;;;17.03;;
38399;SDS011;24180;42.676;23.320;2023-04-08T06:07:27;22.20;;;17.43;;
38399;SDS011;24180;42.676;23.320;2023-04-08T06:09:53;21.73;;;16.50;;
38399;SDS011;24180;42.676;23.320;2023-04-08T06:12:18;22.47;;;16.87;;
38399;SDS011;24180;42.676;23.320;2023-04-08T06:14:44;25.30;;;16.70;;
38399;SDS011;24180;42.676;23.320;2023-04-08T06:17:09;20.10;;;15.30;;
38399;SDS011;24180;42.676;23.320;2023-04-08T06:19:35;17.93;;;14.80;;
38399;SDS011;24180;42.676;23.320;2023-04-08T06:22:01;18.07;;;14.93;;
38399;SDS011;24180;42.676;23.320;2023-04-08T06:24:27;23.73;;;16.40;;
38399;SDS011;24180;42.676;23.320;2023-04-08T06:26:53;18.47;;;15.63;;
38399;SDS011;24180;42.676;23.320;2023-04-08T06:29:20;18.73;;;14.40;;
38399;SDS011;24180;42.676;23.320;2023-04-08T06:31:47;18.40;;;14.87;;
38399;SDS011;24180;42.676;23.320;2023-04-08T06:34:12;18.47;;;15.07;;
38399;SDS011;24180;42.676;23.320;2023-04-08T06:36:38;17.17;;;14.40;;
38399;SDS011;24180;42.676;23.320;2023-04-08T06:39:03;16.70;;;14.83;;
38399;SDS011;24180;42.676;23.320;2023-04-08T06:41:29;19.70;;;15.33;;
38399;SDS011;24180;42.676;23.320;2023-04-08T06:43:54;20.60;;;15.87;;
38399;SDS011;24180;42.676;23.320;2023-04-08T06:46:20;18.67;;;16.60;;
38399;SDS011;24180;42.676;23.320;2023-04-08T06:48:46;19.23;;;15.77;;
38399;SDS011;24180;42.676;23.320;2023-04-08T06:51:11;19.87;;;15.43;;
38399;SDS011;24180;42.676;23.320;2023-04-08T06:53:37;16.77;;;14.40;;
38399;SDS011;24180;42.676;23.320;2023-04-08T06:56:02;17.23;;;14.73;;
38399;SDS011;24180;42.676;23.320;2023-04-08T06:58:31;17.03;;;15.03;;
38399;SDS011;24180;42.676;23.320;2023-04-08T07:00:56;17.30;;;15.37;;
38399;SDS011;24180;42.676;23.320;2023-04-08T07:03:23;19.70;;;14.97;;
38399;SDS011;24180;42.676;23.320;2023-04-08T07:05:48;16.77;;;15.07;;
38399;SDS011;24180;42.676;23.320;2023-04-08T07:08:14;15.47;;;13.90;;
38399;SDS011;24180;42.676;23.320;2023-04-08T07:10:39;16.40;;;14.07;;
38399;SDS011;24180;42.676;23.320;2023-04-08T07:13:06;20.53;;;15.67;;
38399;SDS011;24180;42.676;23.320;2023-04-08T07:15:31;18.93;;;14.90;;
38399;SDS011;24180;42.676;23.320;2023-04-08T07:17:56;16.93;;;15.10;;
38399;SDS011;24180;42.676;23.320;2023-04-08T07:20:22;18.33;;;16.20;;
38399;SDS011;24180;42.676;23.320;2023-04-08T07:22:48;19.20;;;16.60;;
38399;SDS011;24180;42.676;23.320;2023-04-08T07:25:14;19.90;;;15.97;;
38399;SDS011;24180;42.676;23.320;2023-04-08T07:27:40;19.43;;;14.80;;
38399;SDS011;24180;42.676;23.320;2023-04-08T07:30:05;18.57;;;15.63;;
38399;SDS011;24180;42.676;23.320;2023-04-08T07:32:31;20.30;;;15.43;;
38399;SDS011;24180;42.676;23.320;2023-04-08T07:34:57;17.13;;;15.33;;
38399;SDS011;24180;42.676;23.320;2023-04-08T07:37:24;18.57;;;15.73;;
38399;SDS011;24180;42.676;23.320;2023-04-08T07:39:49;19.73;;;16.07;;
38399;SDS011;24180;42.676;23.320;2023-04-08T07:42:15;22.17;;;15.23;;
38399;SDS011;24180;42.676;23.320;2023-04-08T07:44:40;21.40;;;15.50;;
38399;SDS011;24180;42.676;23.320;2023-04-08T07:47:06;16.53;;;14.87;;
38399;SDS011;24180;42.676;23.320;2023-04-08T07:49:33;20.33;;;14.77;;
38399;SDS011;24180;42.676;23.320;2023-04-08T07:51:58;15.73;;;14.23;;
38399;SDS011;24180;42.676;23.320;2023-04-08T07:54:23;16.53;;;14.73;;
38399;SDS011;24180;42.676;23.320;2023-04-08T07:56:49;17.10;;;14.63;;
38399;SDS011;24180;42.676;23.320;2023-04-08T07:59:14;15.83;;;13.97;;
38399;SDS011;24180;42.676;23.320;2023-04-08T08:01:40;19.63;;;15.17;;
38399;SDS011;24180;42.676;23.320;2023-04-08T08:04:05;17.33;;;15.07;;
38399;SDS011;24180;42.676;23.320;2023-04-08T08:06:30;21.30;;;14.07;;
38399;SDS011;24180;42.676;23.320;2023-04-08T08:08:56;16.07;;;14.40;;
38399;SDS011;24180;42.676;23.320;2023-04-08T08:11:22;19.57;;;14.50;;
38399;SDS011;24180;42.676;23.320;2023-04-08T08:13:48;18.97;;;15.07;;
38399;SDS011;24180;42.676;23.320;2023-04-08T08:16:13;16.50;;;14.30;;
38399;SDS011;24180;42.676;23.320;2023-04-08T08:18:39;19.57;;;15.70;;
38399;SDS011;24180;42.676;23.320;2023-04-08T08:21:05;16.87;;;14.87;;
38399;SDS011;24180;42.676;23.320;2023-04-08T08:23:31;17.00;;;15.10;;
38399;SDS011;24180;42.676;23.320;2023-04-08T08:26:01;17.47;;;15.60;;
38399;SDS011;24180;42.676;23.320;2023-04-08T08:28:27;15.43;;;13.83;;
38399;SDS011;24180;42.676;23.320;2023-04-08T08:30:53;16.60;;;14.90;;
38399;SDS011;24180;42.676;23.320;2023-04-08T08:33:18;18.27;;;16.00;;
38399;SDS011;24180;42.676;23.320;2023-04-08T08:35:44;18.83;;;16.37;;
38399;SDS011;24180;42.676;23.320;2023-04-08T08:38:10;17.67;;;15.87;;
38399;SDS011;24180;42.676;23.320;2023-04-08T08:40:37;18.83;;;16.77;;
38399;SDS011;24180;42.676;23.320;2023-04-08T08:43:03;20.53;;;16.53;;
38399;SDS011;24180;42.676;23.320;2023-04-08T08:45:28;18.63;;;16.23;;
38399;SDS011;24180;42.676;23.320;2023-04-08T08:47:54;18.63;;;16.63;;
38399;SDS011;24180;42.676;23.320;2023-04-08T08:50:22;18.83;;;16.73;;
38399;SDS011;24180;42.676;23.320;2023-04-08T08:52:49;18.00;;;16.30;;
38399;SDS011;24180;42.676;23.320;2023-04-08T08:55:18;18.57;;;16.60;;
38399;SDS011;24180;42.676;23.320;2023-04-08T08:57:44;21.33;;;17.03;;
38399;SDS011;24180;42.676;23.320;2023-04-08T09:00:10;19.67;;;16.80;;
38399;SDS011;24180;42.676;23.320;2023-04-08T09:02:37;17.70;;;15.73;;
38399;SDS011;24180;42.676;23.320;2023-04-08T09:05:03;18.53;;;16.60;;
38399;SDS011;24180;42.676;23.320;2023-04-08T09:07:34;19.77;;;17.07;;
38399;SDS011;24180;42.676;23.320;2023-04-08T09:10:00;22.47;;;18.20;;
38399;SDS011;24180;42.676;23.320;2023-04-08T09:12:26;18.77;;;16.80;;
38399;SDS011;24180;42.676;23.320;2023-04-08T09:15:05;20.10;;;16.83;;
38399;SDS011;24180;42.676;23.320;2023-04-08T09:17:36;22.93;;;17.63;;
38399;SDS011;24180;42.676;23.320;2023-04-08T09:20:03;19.93;;;16.93;;
38399;SDS011;24180;42.676;23.320;2023-04-08T09:22:55;19.63;;;17.00;;
38399;SDS011;24180;42.676;23.320;2023-04-08T09:25:23;18.93;;;16.00;;
38399;SDS011;24180;42.676;23.320;2023-04-08T09:27:56;36.53;;;18.30;;
38399;SDS011;24180;42.676;23.320;2023-04-08T09:30:23;24.50;;;16.40;;
38399;SDS011;24180;42.676;23.320;2023-04-08T09:32:50;20.67;;;16.77;;
38399;SDS011;24180;42.676;23.320;2023-04-08T09:35:18;18.47;;;15.07;;
38399;SDS011;24180;42.676;23.320;2023-04-08T09:37:44;21.07;;;14.77;;
38399;SDS011;24180;42.676;23.320;2023-04-08T09:40:10;16.37;;;13.97;;
38399;SDS011;24180;42.676;23.320;2023-04-08T09:42:38;15.73;;;14.07;;
38399;SDS011;24180;42.676;23.320;2023-04-08T09:45:07;20.17;;;15.93;;
38399;SDS011;24180;42.676;23.320;2023-04-08T09:47:41;16.63;;;13.93;;
38399;SDS011;24180;42.676;23.320;2023-04-08T09:50:15;15.50;;;13.90;;
38399;SDS011;24180;42.676;23.320;2023-04-08T09:52:44;16.67;;;14.63;;
38399;SDS011;24180;42.676;23.320;2023-04-08T09:55:20;18.40;;;16.30;;
38399;SDS011;24180;42.676;23.320;2023-04-08T09:57:51;16.27;;;14.63;;
38399;SDS011;24180;42.676;23.320;2023-04-08T10:00:21;17.43;;;15.30;;
38399;SDS011;24180;42.676;23.320;2023-04-08T10:05:17;16.97;;;14.93;;
38399;SDS011;24180;42.676;23.320;2023-04-08T10:07:45;19.03;;;16.93;;
38399;SDS011;24180;42.676;23.320;2023-04-08T10:10:10;17.20;;;15.17;;
38399;SDS011;24180;42.676;23.320;2023-04-08T10:12:36;18.57;;;16.60;;
38399;SDS011;24180;42.676;23.320;2023-04-08T10:23:00;18.27;;;16.10;;
38399;SDS011;24180;42.676;23.320;2023-04-08T10:25:33;18.10;;;14.83;;
38399;SDS011;24180;42.676;23.320;2023-04-08T10:30:45;17.17;;;14.70;;
38399;SDS011;24180;42.676;23.320;2023-04-08T10:38:39;17.63;;;14.60;;
38399;SDS011;24180;42.676;23.320;2023-04-08T10:41:11;20.57;;;15.17;;
38399;SDS011;24180;42.676;23.320;2023-04-08T10:43:45;18.50;;;15.53;;
38399;SDS011;24180;42.676;23.320;2023-04-08T10:46:11;16.93;;;15.13;;
38399;SDS011;24180;42.676;23.320;2023-04-08T10:48:36;17.10;;;15.03;;
38399;SDS011;24180;42.676;23.320;2023-04-08T10:51:02;20.80;;;16.57;;
38399;SDS011;24180;42.676;23.320;2023-04-08T10:58:32;17.27;;;14.40;;
38399;SDS011;24180;42.676;23.320;2023-04-08T11:01:05;19.00;;;15.07;;
38399;SDS011;24180;42.676;23.320;2023-04-08T11:03:31;18.73;;;14.43;;
38399;SDS011;24180;42.676;23.320;2023-04-08T11:05:58;16.73;;;15.03;;
38399;SDS011;24180;42.676;23.320;2023-04-08T11:08:31;15.00;;;13.50;;
38399;SDS011;24180;42.676;23.320;2023-04-08T11:10:57;15.23;;;13.63;;
38399;SDS011;24180;42.676;23.320;2023-04-08T11:13:25;14.93;;;13.40;;
38399;SDS011;24180;42.676;23.320;2023-04-08T11:15:51;14.73;;;13.20;;
38399;SDS011;24180;42.676;23.320;2023-04-08T11:18:17;16.30;;;13.40;;
38399;SDS011;24180;42.676;23.320;2023-04-08T11:20:43;15.80;;;13.43;;
38399;SDS011;24180;42.676;23.320;2023-04-08T11:23:12;15.77;;;14.07;;
38399;SDS011;24180;42.676;23.320;2023-04-08T11:25:38;14.00;;;12.50;;
38399;SDS011;24180;42.676;23.320;2023-04-08T11:28:05;14.97;;;13.47;;
38399;SDS011;24180;42.676;23.320;2023-04-08T11:30:31;15.23;;;13.73;;
38399;SDS011;24180;42.676;23.320;2023-04-08T11:32:57;14.20;;;12.80;;
38399;SDS011;24180;42.676;23.320;2023-04-08T11:35:23;14.30;;;12.90;;
38399;SDS011;24180;42.676;23.320;2023-04-08T11:37:52;14.60;;;13.23;;
38399;SDS011;24180;42.676;23.320;2023-04-08T11:40:19;13.93;;;12.63;;
38399;SDS011;24180;42.676;23.320;2023-04-08T11:42:46;14.33;;;12.97;;
38399;SDS011;24180;42.676;23.320;2023-04-08T11:45:12;14.17;;;12.77;;
38399;SDS011;24180;42.676;23.320;2023-04-08T11:47:40;12.87;;;11.63;;
38399;SDS011;24180;42.676;23.320;2023-04-08T11:50:06;12.53;;;11.40;;
38399;SDS011;24180;42.676;23.320;2023-04-08T11:52:50;12.50;;;11.40;;
38399;SDS011;24180;42.676;23.320;2023-04-08T11:57:49;12.53;;;11.33;;
38399;SDS011;24180;42.676;23.320;2023-04-08T12:00:16;16.47;;;14.77;;
38399;SDS011;24180;42.676;23.320;2023-04-08T12:02:41;13.20;;;11.90;;
38399;SDS011;24180;42.676;23.320;2023-04-08T12:05:06;13.00;;;11.73;;
38399;SDS011;24180;42.676;23.320;2023-04-08T12:07:32;14.10;;;12.60;;
38399;SDS011;24180;42.676;23.320;2023-04-08T12:09:57;13.10;;;11.83;;
38399;SDS011;24180;42.676;23.320;2023-04-08T12:12:23;13.47;;;12.03;;
38399;SDS011;24180;42.676;23.320;2023-04-08T12:14:48;13.87;;;12.37;;
38399;SDS011;24180;42.676;23.320;2023-04-08T12:17:14;15.27;;;13.83;;
38399;SDS011;24180;42.676;23.320;2023-04-08T12:19:40;11.80;;;9.90;;
38399;SDS011;24180;42.676;23.320;2023-04-08T12:22:05;11.33;;;10.23;;
38399;SDS011;24180;42.676;23.320;2023-04-08T12:24:31;13.63;;;11.60;;
38399;SDS011;24180;42.676;23.320;2023-04-08T12:26:57;13.10;;;11.67;;
38399;SDS011;24180;42.676;23.320;2023-04-08T12:29:22;12.10;;;11.00;;
38399;SDS011;24180;42.676;23.320;2023-04-08T12:31:47;12.97;;;11.47;;
38399;SDS011;24180;42.676;23.320;2023-04-08T12:34:13;11.40;;;10.27;;
38399;SDS011;24180;42.676;23.320;2023-04-08T12:36:38;12.33;;;11.13;;
38399;SDS011;24180;42.676;23.320;2023-04-08T12:39:03;12.70;;;9.90;;
38399;SDS011;24180;42.676;23.320;2023-04-08T12:41:29;11.80;;;10.17;;
38399;SDS011;24180;42.676;23.320;2023-04-08T12:43:54;11.47;;;10.37;;
38399;SDS011;24180;42.676;23.320;2023-04-08T12:46:20;11.83;;;9.97;;
38399;SDS011;24180;42.676;23.320;2023-04-08T12:48:45;10.13;;;9.13;;
38399;SDS011;24180;42.676;23.320;2023-04-08T12:51:13;11.57;;;10.47;;
38399;SDS011;24180;42.676;23.320;2023-04-08T12:53:38;10.27;;;9.27;;
38399;SDS011;24180;42.676;23.320;2023-04-08T12:56:04;11.00;;;9.90;;
38399;SDS011;24180;42.676;23.320;2023-04-08T12:58:30;13.17;;;10.80;;
38399;SDS011;24180;42.676;23.320;2023-04-08T13:00:55;11.37;;;10.27;;
38399;SDS011;24180;42.676;23.320;2023-04-08T13:03:20;18.77;;;10.17;;
38399;SDS011;24180;42.676;23.320;2023-04-08T13:05:46;10.47;;;9.47;;
38399;SDS011;24180;42.676;23.320;2023-04-08T13:08:12;10.33;;;9.40;;
38399;SDS011;24180;42.676;23.320;2023-04-08T13:10:38;10.27;;;9.17;;
38399;SDS011;24180;42.676;23.320;2023-04-08T13:13:03;9.93;;;8.93;;
38399;SDS011;24180;42.676;23.320;2023-04-08T13:15:29;10.50;;;9.57;;
38399;SDS011;24180;42.676;23.320;2023-04-08T13:17:54;9.97;;;9.07;;
38399;SDS011;24180;42.676;23.320;2023-04-08T13:20:19;9.60;;;8.70;;
38399;SDS011;24180;42.676;23.320;2023-04-08T13:22:49;10.87;;;9.60;;
38399;SDS011;24180;42.676;23.320;2023-04-08T13:25:15;11.90;;;10.07;;
38399;SDS011;24180;42.676;23.320;2023-04-08T13:27:40;11.57;;;10.47;;
38399;SDS011;24180;42.676;23.320;2023-04-08T13:30:06;11.53;;;10.30;;
38399;SDS011;24180;42.676;23.320;2023-04-08T13:32:31;11.93;;;10.77;;
38399;SDS011;24180;42.676;23.320;2023-04-08T13:34:57;11.70;;;9.93;;
38399;SDS011;24180;42.676;23.320;2023-04-08T13:37:22;10.13;;;9.13;;
38399;SDS011;24180;42.676;23.320;2023-04-08T13:39:48;11.07;;;9.97;;
38399;SDS011;24180;42.676;23.320;2023-04-08T13:42:13;10.83;;;9.73;;
38399;SDS011;24180;42.676;23.320;2023-04-08T13:44:38;11.13;;;10.03;;
38399;SDS011;24180;42.676;23.320;2023-04-08T13:47:05;10.70;;;9.70;;
38399;SDS011;24180;42.676;23.320;2023-04-08T13:49:31;11.03;;;9.93;;
38399;SDS011;24180;42.676;23.320;2023-04-08T13:51:56;12.57;;;11.07;;
38399;SDS011;24180;42.676;23.320;2023-04-08T13:54:22;11.13;;;10.03;;
38399;SDS011;24180;42.676;23.320;2023-04-08T13:56:47;13.37;;;11.60;;
38399;SDS011;24180;42.676;23.320;2023-04-08T13:59:13;13.13;;;11.30;;
38399;SDS011;24180;42.676;23.320;2023-04-08T14:01:38;13.67;;;11.43;;
38399;SDS011;24180;42.676;23.320;2023-04-08T14:04:04;11.33;;;10.07;;
38399;SDS011;24180;42.676;23.320;2023-04-08T14:06:30;11.47;;;10.10;;
38399;SDS011;24180;42.676;23.320;2023-04-08T14:08:56;12.63;;;11.33;;
38399;SDS011;24180;42.676;23.320;2023-04-08T14:11:22;11.83;;;9.70;;
38399;SDS011;24180;42.676;23.320;2023-04-08T14:13:47;11.57;;;10.47;;
38399;SDS011;24180;42.676;23.320;2023-04-08T14:16:12;11.47;;;10.27;;
38399;SDS011;24180;42.676;23.320;2023-04-08T14:18:38;10.47;;;9.43;;
38399;SDS011;24180;42.676;23.320;2023-04-08T14:21:03;9.40;;;8.60;;
38399;SDS011;24180;42.676;23.320;2023-04-08T14:23:29;9.70;;;8.90;;
38399;SDS011;24180;42.676;23.320;2023-04-08T14:25:55;9.77;;;8.90;;
38399;SDS011;24180;42.676;23.320;2023-04-08T14:28:20;10.80;;;9.80;;
38399;SDS011;24180;42.676;23.320;2023-04-08T14:30:45;11.37;;;10.27;;
38399;SDS011;24180;42.676;23.320;2023-04-08T14:33:11;11.93;;;10.73;;
38399;SDS011;24180;42.676;23.320;2023-04-08T14:35:37;11.97;;;10.87;;